createdAt,value
2018-07-10T00:02:11.385Z,15.43
2018-07-10T00:06:55.791Z,15.42
2018-07-10T00:09:38.197Z,14.96
2018-07-10T00:12:06.661Z,14.78
2018-07-10T00:14:35.224Z,14.66
2018-07-10T00:17:03.865Z,14.67
2018-07-10T00:19:32.306Z,14.71
2018-07-10T00:22:00.944Z,14.75
2018-07-10T00:24:29.466Z,14.73
2018-07-10T00:26:58.044Z,14.69
2018-07-10T00:29:26.365Z,14.67
2018-07-10T00:31:54.976Z,14.63
2018-07-10T00:34:23.623Z,14.60
2018-07-10T00:36:52.165Z,14.52
2018-07-10T00:39:20.243Z,14.53
2018-07-10T00:41:49.332Z,14.58
2018-07-10T00:44:18.192Z,14.70
2018-07-10T00:46:46.277Z,14.80
2018-07-10T00:49:14.593Z,14.83
2018-07-10T00:51:43.160Z,14.82
2018-07-10T00:54:11.488Z,14.79
2018-07-10T00:56:40.385Z,14.75
2018-07-10T00:59:09.001Z,14.73
2018-07-10T01:01:37.332Z,14.70
2018-07-10T01:04:05.949Z,14.63
2018-07-10T01:06:34.420Z,14.61
2018-07-10T01:09:03.161Z,14.65
2018-07-10T01:11:31.276Z,14.66
2018-07-10T01:13:59.352Z,14.70
2018-07-10T01:16:34.964Z,14.76
2018-07-10T01:19:06.772Z,14.81
2018-07-10T01:21:35.060Z,14.75
2018-07-10T01:24:04.500Z,14.68
2018-07-10T01:26:34.713Z,14.69
2018-07-10T01:29:09.441Z,14.70
2018-07-10T01:31:39.568Z,14.70
2018-07-10T01:34:07.953Z,14.68
2018-07-10T01:36:36.560Z,14.68
2018-07-10T01:39:05.521Z,14.65
2018-07-10T01:41:34.628Z,14.71
2018-07-10T01:44:02.954Z,14.75
2018-07-10T01:46:31.765Z,14.72
2018-07-10T01:49:00.168Z,14.66
2018-07-10T01:51:30.123Z,14.65
2018-07-10T01:53:58.660Z,14.61
2018-07-10T01:56:27.043Z,14.60
2018-07-10T01:58:55.433Z,14.59
2018-07-10T02:01:23.835Z,14.59
2018-07-10T02:03:52.808Z,14.59
2018-07-10T02:06:21.416Z,14.52
2018-07-10T02:08:49.818Z,14.45
2018-07-10T02:11:18.500Z,14.44
2018-07-10T02:13:46.833Z,14.41
2018-07-10T02:16:15.657Z,14.33
2018-07-10T02:18:45.119Z,14.26
2018-07-10T02:21:13.626Z,14.20
2018-07-10T02:23:44.212Z,14.20
2018-07-10T02:26:15.353Z,14.21
2018-07-10T02:28:43.737Z,14.19
2018-07-10T02:31:12.322Z,14.13
2018-07-10T02:33:40.641Z,14.06
2018-07-10T02:36:08.834Z,14.01
2018-07-10T02:38:41.689Z,13.99
2018-07-10T02:41:12.709Z,14.03
2018-07-10T02:43:41.416Z,14.02
2018-07-10T02:46:09.528Z,13.99
2018-07-10T02:48:37.891Z,13.98
2018-07-10T02:51:07.551Z,13.98
2018-07-10T02:53:38.309Z,13.97
2018-07-10T02:56:09.360Z,14.01
2018-07-10T02:58:37.680Z,13.97
2018-07-10T03:01:06.716Z,13.98
2018-07-10T03:03:37.780Z,14.05
2018-07-10T03:06:06.232Z,14.01
2018-07-10T03:08:34.948Z,14.02
2018-07-10T03:11:03.552Z,14.00
2018-07-10T03:13:32.389Z,14.02
2018-07-10T03:16:00.717Z,14.03
2018-07-10T03:18:30.720Z,14.05
2018-07-10T03:20:59.261Z,14.12
2018-07-10T03:23:27.936Z,14.12
2018-07-10T03:25:56.633Z,14.14
2018-07-10T03:28:24.960Z,14.15
2018-07-10T03:30:53.588Z,14.11
2018-07-10T03:33:22.844Z,14.05
2018-07-10T03:35:51.412Z,14.03
2018-07-10T03:38:20.002Z,14.02
2018-07-10T03:40:48.561Z,13.98
2018-07-10T03:43:17.128Z,13.95
2018-07-10T03:45:45.353Z,14.00
2018-07-10T03:48:13.897Z,13.94
2018-07-10T03:50:42.602Z,13.88
2018-07-10T03:53:11.014Z,13.86
2018-07-10T03:55:39.848Z,13.85
2018-07-10T03:58:08.204Z,13.83
2018-07-10T04:00:37.136Z,13.81
2018-07-10T04:03:05.603Z,13.87
2018-07-10T04:05:34.244Z,13.89
2018-07-10T04:08:04.638Z,13.86
2018-07-10T04:10:34.606Z,13.89
2018-07-10T04:13:21.299Z,13.89
2018-07-10T04:15:54.574Z,13.88
2018-07-10T04:18:25.687Z,13.92
2018-07-10T04:21:26.693Z,13.92
2018-07-10T04:24:17.425Z,13.84
2018-07-10T04:26:53.574Z,13.80
2018-07-10T04:29:33.604Z,13.77
2018-07-10T04:32:02.060Z,13.66
2018-07-10T04:34:32.132Z,13.57
2018-07-10T04:37:06.718Z,13.53
2018-07-10T04:39:35.981Z,13.53
2018-07-10T04:42:11.989Z,13.54
2018-07-10T04:44:41.645Z,13.52
2018-07-10T04:48:22.979Z,13.54
2018-07-10T04:50:53.388Z,13.50
2018-07-10T04:53:31.249Z,13.45
2018-07-10T04:56:00.109Z,13.45
2018-07-10T04:58:28.516Z,13.43
2018-07-10T05:01:02.941Z,13.46
2018-07-10T05:03:31.705Z,13.43
2018-07-10T05:06:02.907Z,13.46
2018-07-10T05:08:31.528Z,13.50
2018-07-10T05:11:00.134Z,13.50
2018-07-10T05:13:28.797Z,13.44
2018-07-10T05:16:01.781Z,13.39
2018-07-10T05:18:30.513Z,13.43
2018-07-10T05:21:01.123Z,13.46
2018-07-10T05:23:30.626Z,13.50
2018-07-10T05:25:59.291Z,13.47
2018-07-10T05:28:28.308Z,13.45
2018-07-10T05:30:59.537Z,13.47
2018-07-10T05:33:28.835Z,13.50
2018-07-10T05:38:39.528Z,13.44
2018-07-10T05:41:09.016Z,13.45
2018-07-10T05:43:40.157Z,13.46
2018-07-10T05:46:09.256Z,13.48
2018-07-10T05:48:37.832Z,13.50
2018-07-10T05:51:06.016Z,13.53
2018-07-10T05:53:34.344Z,13.55
2018-07-10T05:56:03.053Z,13.53
2018-07-10T05:58:31.463Z,13.54
2018-07-10T06:01:00.226Z,13.53
2018-07-10T06:03:29.144Z,13.54
2018-07-10T06:05:57.468Z,13.55
2018-07-10T06:08:25.981Z,13.57
2018-07-10T06:10:54.329Z,13.59
2018-07-10T06:13:23.149Z,13.61
2018-07-10T06:15:51.549Z,13.66
2018-07-10T06:18:20.901Z,13.69
2018-07-10T06:20:49.213Z,13.74
2018-07-10T06:23:20.836Z,13.74
2018-07-10T06:25:49.660Z,13.72
2018-07-10T06:28:25.693Z,13.69
2018-07-10T06:30:53.785Z,13.70
2018-07-10T06:33:25.480Z,13.75
2018-07-10T06:36:06.540Z,13.79
2018-07-10T06:38:42.523Z,13.85
2018-07-10T06:41:12.030Z,13.94
2018-07-10T06:43:47.073Z,13.96
2018-07-10T06:46:19.625Z,14.04
2018-07-10T06:48:51.592Z,14.10
2018-07-10T06:51:20.317Z,14.12
2018-07-10T06:53:53.496Z,14.18
2018-07-10T06:56:26.661Z,14.20
2018-07-10T06:58:55.399Z,14.26
2018-07-10T07:01:25.108Z,14.33
2018-07-10T07:03:57.453Z,14.35
2018-07-10T07:06:26.080Z,14.39
2018-07-10T07:08:55.144Z,14.42
2018-07-10T07:11:23.580Z,14.48
2018-07-10T07:13:51.896Z,14.52
2018-07-10T07:16:20.370Z,14.55
2018-07-10T07:18:49.037Z,14.56
2018-07-10T07:21:17.384Z,14.60
2018-07-10T07:23:49.195Z,14.59
2018-07-10T07:26:17.700Z,14.59
2018-07-10T07:28:46.272Z,14.60
2018-07-10T07:31:15.161Z,14.58
2018-07-10T07:33:43.569Z,14.57
2018-07-10T07:36:12.213Z,14.57
2018-07-10T07:38:40.318Z,14.63
2018-07-10T07:41:08.945Z,14.64
2018-07-10T07:43:37.647Z,14.61
2018-07-10T07:46:06.249Z,14.63
2018-07-10T07:48:34.673Z,14.61
2018-07-10T07:51:03.208Z,14.56
2018-07-10T07:53:32.018Z,14.55
2018-07-10T07:56:00.925Z,14.53
2018-07-10T07:58:29.573Z,14.54
2018-07-10T08:00:58.175Z,14.57
2018-07-10T08:03:26.841Z,14.56
2018-07-10T08:05:55.252Z,14.54
2018-07-10T08:08:23.817Z,14.59
2018-07-10T08:10:52.956Z,14.65
2018-07-10T08:13:21.744Z,14.69
2018-07-10T08:15:50.700Z,14.70
2018-07-10T08:18:19.672Z,14.69
2018-07-10T08:20:49.376Z,14.72
2018-07-10T08:23:17.696Z,14.77
2018-07-10T08:25:46.142Z,14.81
2018-07-10T08:28:14.424Z,14.84
2018-07-10T08:30:43.201Z,14.87
2018-07-10T08:33:11.290Z,14.95
2018-07-10T08:35:39.843Z,15.03
2018-07-10T08:38:08.369Z,15.07
2018-07-10T08:40:36.997Z,15.09
2018-07-10T08:43:06.012Z,15.12
2018-07-10T08:45:34.541Z,15.20
2018-07-10T08:48:03.054Z,15.23
2018-07-10T08:50:31.510Z,15.24
2018-07-10T08:53:00.061Z,15.18
2018-07-10T08:55:28.609Z,15.14
2018-07-10T08:57:57.427Z,15.14
2018-07-10T09:00:25.984Z,15.16
2018-07-10T09:02:54.316Z,15.23
2018-07-10T09:05:22.677Z,15.30
2018-07-10T09:07:51.375Z,15.32
2018-07-10T09:10:20.208Z,15.27
2018-07-10T09:12:48.648Z,15.22
2018-07-10T09:15:17.117Z,15.18
2018-07-10T09:17:45.195Z,15.17
2018-07-10T09:20:21.382Z,15.18
2018-07-10T09:22:49.721Z,15.19
2018-07-10T09:25:19.125Z,15.19
2018-07-10T09:27:47.646Z,15.22
2018-07-10T09:30:16.534Z,15.23
2018-07-10T09:32:44.885Z,15.26
2018-07-10T09:35:13.189Z,15.32
2018-07-10T09:37:45.768Z,15.31
2018-07-10T09:40:14.116Z,15.24
2018-07-10T09:42:45.705Z,15.22
2018-07-10T09:45:14.485Z,15.20
2018-07-10T09:47:42.809Z,15.23
2018-07-10T09:50:11.643Z,15.29
2018-07-10T09:52:39.968Z,15.33
2018-07-10T09:55:08.853Z,15.40
2018-07-10T09:57:38.669Z,15.49
2018-07-10T10:00:06.777Z,15.61
2018-07-10T10:02:35.879Z,15.74
2018-07-10T10:05:05.840Z,15.85
2018-07-10T10:07:34.260Z,15.81
2018-07-10T10:10:04.128Z,15.78
2018-07-10T10:12:33.112Z,15.83
2018-07-10T10:15:01.808Z,15.94
2018-07-10T10:17:30.525Z,16.08
2018-07-10T10:19:59.252Z,16.10
2018-07-10T10:22:28.640Z,16.04
2018-07-10T10:24:57.020Z,15.99
2018-07-10T10:27:27.709Z,15.95
2018-07-10T10:29:56.061Z,15.94
2018-07-10T10:32:25.585Z,15.93
2018-07-10T10:34:54.149Z,15.92
2018-07-10T10:37:23.689Z,15.91
2018-07-10T10:39:52.830Z,15.94
2018-07-10T10:42:21.665Z,15.99
2018-07-10T10:44:52.081Z,16.08
2018-07-10T10:47:21.197Z,16.23
2018-07-10T10:49:50.143Z,16.38
2018-07-10T10:52:21.848Z,16.46
2018-07-10T10:54:50.209Z,16.48
2018-07-10T10:57:19.985Z,16.60
2018-07-10T10:59:49.874Z,16.80
2018-07-10T11:02:18.210Z,17.01
2018-07-10T11:04:47.117Z,17.22
2018-07-10T11:07:16.057Z,17.49
2018-07-10T11:09:44.773Z,17.78
2018-07-10T11:12:13.265Z,17.99
2018-07-10T11:14:43.785Z,18.05
2018-07-10T11:17:19.778Z,18.07
2018-07-10T11:19:55.118Z,18.07
2018-07-10T11:22:24.022Z,17.97
2018-07-10T11:25:04.152Z,17.88
2018-07-10T11:28:10.143Z,17.81
2018-07-10T11:30:39.312Z,17.74
2018-07-10T11:33:08.726Z,17.67
2018-07-10T11:35:37.624Z,17.66
2018-07-10T11:38:08.130Z,17.64
2018-07-10T11:40:39.089Z,17.59
2018-07-10T11:43:09.017Z,17.57
2018-07-10T11:45:37.566Z,17.57
2018-07-10T11:48:05.801Z,17.59
2018-07-10T11:50:34.208Z,17.56
2018-07-10T11:53:02.838Z,17.56
2018-07-10T11:55:31.378Z,17.55
2018-07-10T11:58:00.057Z,17.56
2018-07-10T12:00:29.096Z,17.57
2018-07-10T12:02:57.967Z,17.62
2018-07-10T12:05:26.468Z,17.70
2018-07-10T12:07:58.128Z,17.83
2018-07-10T12:10:29.590Z,18.02
2018-07-10T12:12:58.137Z,18.08
2018-07-10T12:15:26.797Z,18.09
2018-07-10T12:17:55.793Z,18.14
2018-07-10T12:20:29.656Z,18.10
2018-07-10T12:22:58.616Z,18.03
2018-07-10T12:25:27.396Z,17.98
2018-07-10T12:27:56.220Z,17.83
2018-07-10T12:30:25.033Z,17.70
2018-07-10T12:32:53.697Z,17.73
2018-07-10T12:35:22.220Z,17.75
2018-07-10T12:37:51.448Z,17.75
2018-07-10T12:40:19.819Z,17.77
2018-07-10T12:42:48.491Z,17.82
2018-07-10T12:45:17.155Z,17.81
2018-07-10T12:47:45.560Z,17.77
2018-07-10T12:50:14.069Z,17.78
2018-07-10T12:52:42.684Z,17.83
2018-07-10T12:55:11.202Z,17.88
2018-07-10T12:57:43.240Z,17.86
2018-07-10T13:00:12.196Z,17.89
2018-07-10T13:02:42.765Z,17.92
2018-07-10T13:05:12.582Z,17.97
2018-07-10T13:07:40.840Z,18.07
2018-07-10T13:10:08.992Z,18.27
2018-07-10T13:12:37.747Z,18.58
2018-07-10T13:15:06.547Z,19.10
2018-07-10T13:17:37.047Z,19.70
2018-07-10T13:20:05.495Z,20.34
2018-07-10T13:22:34.153Z,21.02
2018-07-10T13:25:02.490Z,21.45
2018-07-10T13:27:31.294Z,21.72
2018-07-10T13:29:59.541Z,22.01
2018-07-10T13:32:28.128Z,22.13
2018-07-10T13:34:56.457Z,22.15
2018-07-10T13:37:27.057Z,22.15
2018-07-10T13:39:55.408Z,22.03
2018-07-10T13:42:34.089Z,21.76
2018-07-10T13:45:02.427Z,21.70
2018-07-10T13:47:31.044Z,21.64
2018-07-10T13:49:59.131Z,21.61
2018-07-10T13:52:27.453Z,21.65
2018-07-10T13:54:56.133Z,21.71
2018-07-10T13:57:24.455Z,21.68
2018-07-10T13:59:53.247Z,21.53
2018-07-10T14:02:21.852Z,21.30
2018-07-10T14:04:51.157Z,21.16
2018-07-10T14:07:20.356Z,21.06
2018-07-10T14:09:48.681Z,21.05
2018-07-10T14:12:17.159Z,21.12
2018-07-10T14:14:45.710Z,21.22
2018-07-10T14:17:14.313Z,21.31
2018-07-10T14:19:43.020Z,21.43
2018-07-10T14:22:11.374Z,21.68
2018-07-10T14:24:40.242Z,21.80
2018-07-10T14:27:08.900Z,21.73
2018-07-10T14:29:37.556Z,21.50
2018-07-10T14:32:06.457Z,21.23
2018-07-10T14:34:35.187Z,20.88
2018-07-10T14:37:03.568Z,20.57
2018-07-10T14:39:32.704Z,20.36
2018-07-10T14:42:03.230Z,20.17
2018-07-10T14:44:31.965Z,20.10
2018-07-10T14:47:00.508Z,20.19
2018-07-10T14:49:29.276Z,20.31
2018-07-10T14:51:57.773Z,20.51
2018-07-10T14:54:26.544Z,20.72
2018-07-10T14:56:55.302Z,20.96
2018-07-10T14:59:24.268Z,21.28
2018-07-10T15:01:52.782Z,21.46
2018-07-10T15:04:21.393Z,21.50
2018-07-10T15:06:50.135Z,21.56
2018-07-10T15:09:18.232Z,21.64
2018-07-10T15:11:46.545Z,21.70
2018-07-10T15:14:15.093Z,21.78
2018-07-10T15:16:48.698Z,21.85
2018-07-10T15:19:17.665Z,21.90
2018-07-10T15:21:46.295Z,21.86
2018-07-10T15:24:14.608Z,21.86
2018-07-10T15:26:43.294Z,21.87
2018-07-10T15:29:15.799Z,21.84
2018-07-10T15:31:44.368Z,21.81
2018-07-10T15:34:12.772Z,21.84
2018-07-10T15:36:41.312Z,21.85
2018-07-10T15:39:09.629Z,21.64
2018-07-10T15:41:38.584Z,21.18
2018-07-10T15:44:06.668Z,20.86
2018-07-10T15:46:35.029Z,20.68
2018-07-10T15:49:03.356Z,20.65
2018-07-10T15:51:32.045Z,20.69
2018-07-10T15:54:00.521Z,20.70
2018-07-10T15:56:28.832Z,20.70
2018-07-10T15:58:57.457Z,20.70
2018-07-10T16:01:25.844Z,20.58
2018-07-10T16:03:54.635Z,20.27
2018-07-10T16:06:24.542Z,19.94
2018-07-10T16:08:59.476Z,19.78
2018-07-10T16:11:27.824Z,19.74
2018-07-10T16:13:56.481Z,19.75
2018-07-10T16:16:24.577Z,19.68
2018-07-10T16:18:57.807Z,19.58
2018-07-10T16:21:32.758Z,19.56
2018-07-10T16:24:02.909Z,19.59
2018-07-10T16:26:37.445Z,19.40
2018-07-10T16:29:08.420Z,19.17
2018-07-10T16:31:40.089Z,18.97
2018-07-10T16:34:08.824Z,18.94
2018-07-10T16:36:37.848Z,18.99
2018-07-10T16:39:06.371Z,19.05
2018-07-10T16:41:40.317Z,19.18
2018-07-10T16:44:08.648Z,19.37
2018-07-10T16:46:36.965Z,19.48
2018-07-10T16:49:14.100Z,19.58
2018-07-10T16:52:21.065Z,19.70
2018-07-10T16:54:49.496Z,19.85
2018-07-10T16:57:17.823Z,19.96
2018-07-10T16:59:46.253Z,20.09
2018-07-10T17:02:14.591Z,20.13
2018-07-10T17:04:42.748Z,20.15
2018-07-10T17:07:11.340Z,20.15
2018-07-10T17:09:40.228Z,20.08
2018-07-10T17:12:08.766Z,19.87
2018-07-10T17:14:36.872Z,19.63
2018-07-10T17:17:09.998Z,19.53
2018-07-10T17:19:39.188Z,19.53
2018-07-10T17:22:07.432Z,19.49
2018-07-10T17:24:35.881Z,19.47
2018-07-10T17:27:04.524Z,19.39
2018-07-10T17:29:33.362Z,19.21
2018-07-10T17:32:01.470Z,19.14
2018-07-10T17:34:30.371Z,19.15
2018-07-10T17:36:58.900Z,19.01
2018-07-10T17:39:27.168Z,18.83
2018-07-10T17:41:55.767Z,18.69
2018-07-10T17:44:24.251Z,18.60
2018-07-10T17:46:52.408Z,18.60
2018-07-10T17:49:21.072Z,18.54
2018-07-10T17:51:49.333Z,18.55
2018-07-10T17:54:17.936Z,18.55
2018-07-10T17:56:46.653Z,18.56
2018-07-10T17:59:15.089Z,18.58
2018-07-10T18:01:43.732Z,18.59
2018-07-10T18:04:11.844Z,18.64
2018-07-10T18:06:41.057Z,18.71
2018-07-10T18:09:10.701Z,18.73
2018-07-10T18:11:39.412Z,18.67
2018-07-10T18:14:07.780Z,18.61
2018-07-10T18:16:36.757Z,18.60
2018-07-10T18:19:05.657Z,18.55
2018-07-10T18:21:35.364Z,18.50
2018-07-10T18:24:03.713Z,18.44
2018-07-10T18:26:32.314Z,18.39
2018-07-10T18:29:00.569Z,18.39
2018-07-10T18:31:28.954Z,18.36
2018-07-10T18:33:57.301Z,18.36
2018-07-10T18:36:25.985Z,18.37
2018-07-10T18:38:54.495Z,18.43
2018-07-10T18:41:23.042Z,18.44
2018-07-10T18:43:51.737Z,18.48
2018-07-10T18:46:21.590Z,18.44
2018-07-10T18:48:50.869Z,18.43
2018-07-10T18:51:19.910Z,18.41
2018-07-10T18:53:49.260Z,18.36
2018-07-10T18:56:17.896Z,18.31
2018-07-10T18:59:02.451Z,18.25
2018-07-10T19:01:49.488Z,18.15
2018-07-10T19:04:18.033Z,18.08
2018-07-10T19:06:46.849Z,18.00
2018-07-10T19:09:23.941Z,17.93
2018-07-10T19:11:52.335Z,17.89
2018-07-10T19:14:21.217Z,17.87
2018-07-10T19:16:50.120Z,17.82
2018-07-10T19:19:19.145Z,17.79
2018-07-10T19:21:53.991Z,17.80
2018-07-10T19:24:24.876Z,17.79
2018-07-10T19:26:53.813Z,17.79
2018-07-10T19:29:29.343Z,17.77
2018-07-10T19:31:57.985Z,17.74
2018-07-10T19:34:26.321Z,17.64
2018-07-10T19:36:54.915Z,17.58
2018-07-10T19:39:23.028Z,17.54
2018-07-10T19:41:51.540Z,17.54
2018-07-10T19:44:21.312Z,17.56
2018-07-10T19:46:49.757Z,17.55
2018-07-10T19:49:18.390Z,17.55
2018-07-10T19:51:49.241Z,17.56
2018-07-10T19:54:17.912Z,17.56
2018-07-10T19:56:46.708Z,17.56
2018-07-10T19:59:16.041Z,17.55
2018-07-10T20:01:56.244Z,17.48
2018-07-10T20:04:28.552Z,17.35
2018-07-10T20:07:10.573Z,17.34
2018-07-10T20:09:46.581Z,17.30
2018-07-10T20:12:15.167Z,17.30
2018-07-10T20:14:58.283Z,17.27
2018-07-10T20:17:29.230Z,17.23
2018-07-10T20:20:09.271Z,17.23
2018-07-10T20:22:48.896Z,17.22
2018-07-10T20:25:30.916Z,17.21
2018-07-10T20:28:03.261Z,17.21
2018-07-10T20:30:44.480Z,17.19
2018-07-10T20:33:32.220Z,17.21
2018-07-10T20:36:03.940Z,17.20
2018-07-10T20:38:33.539Z,17.18
2018-07-10T20:41:03.000Z,17.16
2018-07-10T20:43:34.448Z,17.16
2018-07-10T20:46:03.092Z,17.15
2018-07-10T20:48:39.310Z,17.17
2018-07-10T20:51:09.339Z,17.18
2018-07-10T20:53:43.345Z,17.22
2018-07-10T20:56:30.140Z,17.23
2018-07-10T20:59:05.093Z,17.19
2018-07-10T21:01:36.300Z,17.14
2018-07-10T21:04:13.823Z,17.06
2018-07-10T21:06:55.201Z,16.99
2018-07-10T21:09:28.532Z,16.92
2018-07-10T21:12:20.281Z,16.87
2018-07-10T21:14:52.865Z,16.84
2018-07-10T21:17:27.672Z,16.78
2018-07-10T21:20:00.344Z,16.77
2018-07-10T21:22:36.688Z,16.76
2018-07-10T21:25:07.409Z,16.76
2018-07-10T21:27:48.849Z,16.77
2018-07-10T21:30:25.643Z,16.80
2018-07-10T21:34:06.903Z,16.78
2018-07-10T21:36:43.524Z,16.63
2018-07-10T21:39:16.637Z,16.51
2018-07-10T21:42:58.658Z,16.41
2018-07-10T21:45:43.768Z,16.35
2018-07-10T21:48:18.117Z,16.29
2018-07-10T21:50:51.172Z,16.25
2018-07-10T21:53:20.291Z,16.20
2018-07-10T21:55:48.872Z,16.14
2018-07-10T21:58:18.096Z,16.08
2018-07-10T22:01:55.856Z,16.02
2018-07-10T22:04:26.112Z,15.98
2018-07-10T22:06:56.009Z,15.93
2018-07-10T22:09:25.592Z,15.89
2018-07-10T22:11:55.084Z,15.85
2018-07-10T22:14:24.573Z,15.80
2018-07-10T22:16:52.965Z,15.79
2018-07-10T22:19:26.104Z,15.73
2018-07-10T22:21:55.534Z,15.70
2018-07-10T22:24:25.170Z,15.64
2018-07-10T22:26:55.694Z,15.60
2018-07-10T22:29:29.898Z,15.58
2018-07-10T22:31:59.364Z,15.56
2018-07-10T22:34:28.676Z,15.57
2018-07-10T22:36:57.608Z,15.56
2018-07-10T22:39:25.952Z,15.53
2018-07-10T22:41:55.352Z,15.49
2018-07-10T22:44:26.147Z,15.46
2018-07-10T22:46:56.048Z,15.41
2018-07-10T22:49:25.737Z,15.37
2018-07-10T22:52:00.852Z,15.32
2018-07-10T22:54:30.181Z,15.28
2018-07-10T22:56:58.620Z,15.24
2018-07-10T22:59:27.517Z,15.20
2018-07-10T23:01:55.886Z,15.16
2018-07-10T23:04:24.629Z,15.13
2018-07-10T23:06:53.464Z,15.06
2018-07-10T23:09:21.796Z,15.02
2018-07-10T23:11:50.378Z,14.97
2018-07-10T23:14:18.705Z,14.94
2018-07-10T23:16:47.320Z,14.91
2018-07-10T23:19:15.484Z,14.88
2018-07-10T23:21:43.884Z,14.85
2018-07-10T23:24:12.446Z,14.83
2018-07-10T23:26:42.116Z,14.85
2018-07-10T23:29:10.936Z,14.82
2018-07-10T23:31:40.586Z,14.80
2018-07-10T23:34:10.930Z,14.83
2018-07-10T23:36:39.576Z,14.86
2018-07-10T23:39:09.853Z,14.85
2018-07-10T23:41:48.684Z,14.89
2018-07-10T23:44:17.856Z,14.91
2018-07-10T23:46:53.053Z,14.91
2018-07-10T23:49:21.850Z,14.92
2018-07-10T23:52:01.444Z,14.91
2018-07-10T23:54:30.134Z,14.86
2018-07-10T23:56:58.541Z,14.83
2018-07-10T23:59:26.936Z,14.77
